テルアビブ / ベン・グリオン の空港の天気 - METARとTAF

ベン・グリオン国際空港(テルアビブ) ( LLBG / TLV ) - イスラエル ロード / テルアビブ
飛行場実況気象(Metar)
観測時間02/17 16:50 IST (02/17 14:50 UTC)
風向・風速西南西 4m/s
視程10km以上
天気現象
少しの雲 雲底高度 1370m
気温16℃
湿度48%
気圧1020hPa
METARLLBG 171450Z 25007KT 9999 FEW045 16/05 Q1020 NOSIG
過去の天気等 Google飛行場航空写真 Wunderground天気予報

過去48時間のMETAR

飛行場予報(TAF)
発表時間: 2/17 13:04 IST (2/17 11:04 UTC)
予報対象時間: 17日14時 IST ~ 18日14時 IST
風向・風速西南西 7m/s
視程10km以上
少しの雲 雲底高度 1220m
17日18時 IST ~ 17日20時 IST に徐々に
風向・風速南南東 3m/s
全天の4割程度の雲 雲底高度 910m
18日0時 IST から 確率 30% で
視程7000m
天気現象
少しの塔状積雲 雲底高度 550m
全天の8割程度の雲 雲底高度 760m
18日9時 IST ~ 18日11時 IST に徐々に
風向・風速西南西 5m/s
18日11時 IST から 確率 40% で
視程7000m
天気現象
少しの塔状積雲 雲底高度 550m
全天の8割程度の雲 雲底高度 760m
TAF LLBG 171104Z 1712/1812 24014KT 9999 FEW040
BECMG 1716/1718 16005KT SCT030
PROB30 1722/1807 7000 RA FEW018TCU BKN025
BECMG 1807/1809 24010KT
PROB40 1809/1812 7000 RA FEW018TCU BKN025 TX17/1712Z TN07/1804Z